OESH

Sharurah Domestic Airport

Airport
ICAO code
OESH
Summary
ICAO Region
MID
ICAO Territory
Location

Sharurah,

Coordinates
17° 28' 11" N , 47° 6' 43" E
KCC
Metar
Observation
OESH 311900Z 07008KT CAVOK 22/M01 Q1014 NOSIG
Station
Sharurah
Date/Time
2023-01-31 19:00:00
Wind direction
70°
Wind speed
08 kts
Lowest cloud amount
clouds and visibility OK
Temperature
22°C
Dew point
-1°C
Humidity
21%
QNH
1014 hPa
Weather condition
n/a

Description

Sharurah Domestic Airport is located 1 km south of Sharurah, Saudi Arabia.

Climatology

Hot Desert Climate (Köppen climate classification BWh) - Hot desert climates are typically found in the subtropics where there is unbroken sunshine for the whole year due to the stable descending air and high pressure, little or no precipitation. Maximum temperatures of 40°C to 45°C are not uncommon, particularly during the warmer months of the year. During colder periods of the year, night-time temperatures can drop to freezing or below due to the exceptional radiation loss under the clear skies. However, very rarely do temperatures drop far below freezing.

Runways

Designator Length Width Surface Rops
8/26 3650 45 ASP Yes/Yes

Airport map

Aerial View

SKYbrary Partners:

Safety knowledge contributed by: